Time;durP1;ratioP1;P1;durP2;ratioP2;P2;SDS_P1;SDS_P2;PMS_P1;PMS_P2;Temp;Humidity;BMP_temperature;BMP_pressure;BME280_temperature;BME280_humidity;BME280_pressure;Samples;Min_cycle;Max_cycle;Signal;HPM_P1;HPM_P2
2021/09/03 00:02:12;;;;;;;10.70;7.50;;;;;;;;;;4878060;29;20071;-48
2021/09/03 00:04:40;;;;;;;12.88;8.88;;;;;;;;;;4870754;29;20041;-47
2021/09/03 00:07:06;;;;;;;12.40;8.90;;;;;;;;;;4877082;29;20049;-47
2021/09/03 00:09:33;;;;;;;12.52;8.55;;;;;;;;;;4879799;29;20407;-50
2021/09/03 00:12:00;;;;;;;13.80;9.00;;;;;;;;;;4878346;29;20415;-46
2021/09/03 00:14:27;;;;;;;10.93;8.27;;;;;;;;;;4877119;29;20664;-50
2021/09/03 00:16:54;;;;;;;12.75;9.23;;;;;;;;;;4877992;29;20049;-47
2021/09/03 00:19:20;;;;;;;12.95;9.43;;;;;;;;;;4879782;29;20045;-45
2021/09/03 00:21:47;;;;;;;13.05;8.73;;;;;;;;;;4878220;29;20041;-47
2021/09/03 00:24:14;;;;;;;13.05;8.75;;;;;;;;;;4877727;29;20045;-49
2021/09/03 00:26:41;;;;;;;12.05;9.23;;;;;;;;;;4879102;29;20063;-47
2021/09/03 00:29:07;;;;;;;11.30;8.00;;;;;;;;;;4879811;29;20072;-47
2021/09/03 00:31:34;;;;;;;10.40;8.23;;;;;;;;;;4877930;29;20051;-48
2021/09/03 00:34:01;;;;;;;11.90;9.15;;;;;;;;;;4878209;29;20048;-48
2021/09/03 00:36:27;;;;;;;12.75;8.50;;;;;;;;;;4878849;29;20045;-47
2021/09/03 00:38:54;;;;;;;12.68;8.93;;;;;;;;;;4879239;29;20053;-51
2021/09/03 00:41:21;;;;;;;11.50;9.10;;;;;;;;;;4878950;29;20069;-47
2021/09/03 00:43:48;;;;;;;12.23;8.82;;;;;;;;;;4876598;29;20037;-48
2021/09/03 00:46:15;;;;;;;12.93;9.57;;;;;;;;;;4868742;29;20048;-48
2021/09/03 00:48:41;;;;;;;14.80;9.25;;;;;;;;;;4879120;29;20085;-48
2021/09/03 00:51:08;;;;;;;11.02;8.50;;;;;;;;;;4878866;29;20658;-49
2021/09/03 00:53:35;;;;;;;12.68;8.70;;;;;;;;;;4873400;29;20057;-49
2021/09/03 00:56:03;;;;;;;12.60;9.05;;;;;;;;;;4878007;29;20055;-48
2021/09/03 00:58:29;;;;;;;15.02;8.65;;;;;;;;;;4876474;29;20490;-47
2021/09/03 01:00:56;;;;;;;12.82;9.00;;;;;;;;;;4878657;29;20045;-47
2021/09/03 01:03:23;;;;;;;13.38;9.40;;;;;;;;;;4877353;29;20037;-49
2021/09/03 01:05:51;;;;;;;14.55;9.65;;;;;;;;;;4877441;29;20052;-48
2021/09/03 01:08:18;;;;;;;14.38;9.73;;;;;;;;;;4878694;29;20095;-49
2021/09/03 01:10:45;;;;;;;13.05;9.32;;;;;;;;;;4878546;29;20045;-50
2021/09/03 01:13:12;;;;;;;12.60;9.43;;;;;;;;;;4869846;29;20053;-49
2021/09/03 01:15:39;;;;;;;14.05;9.18;;;;;;;;;;4874401;29;20041;-48
2021/09/03 01:18:06;;;;;;;13.75;10.10;;;;;;;;;;4878572;29;20423;-50
2021/09/03 01:20:33;;;;;;;12.38;9.27;;;;;;;;;;4878402;29;20044;-48
2021/09/03 01:23:00;;;;;;;16.15;10.70;;;;;;;;;;4868057;29;20519;-49
2021/09/03 01:25:26;;;;;;;15.10;9.65;;;;;;;;;;4877574;29;20053;-47
2021/09/03 01:27:53;;;;;;;16.13;10.27;;;;;;;;;;4885226;29;20044;-48
2021/09/03 01:30:20;;;;;;;15.05;10.57;;;;;;;;;;4874885;29;20688;-48
2021/09/03 01:32:48;;;;;;;14.80;10.13;;;;;;;;;;4859781;29;20059;-48
2021/09/03 01:35:15;;;;;;;13.27;9.63;;;;;;;;;;4869103;29;20041;-51
2021/09/03 01:37:42;;;;;;;12.43;9.07;;;;;;;;;;4878168;29;20513;-51
2021/09/03 01:40:09;;;;;;;14.70;10.00;;;;;;;;;;4878390;29;20407;-51
2021/09/03 01:42:36;;;;;;;13.57;9.88;;;;;;;;;;4867074;29;20049;-48
2021/09/03 01:45:03;;;;;;;12.30;9.63;;;;;;;;;;4871814;29;20047;-49
2021/09/03 01:47:31;;;;;;;15.88;9.93;;;;;;;;;;4877719;29;20092;-52
2021/09/03 01:49:57;;;;;;;12.43;9.43;;;;;;;;;;4876646;29;20033;-51
2021/09/03 01:52:24;;;;;;;14.10;10.60;;;;;;;;;;4867918;29;20045;-48
2021/09/03 01:54:51;;;;;;;15.18;10.20;;;;;;;;;;4877686;29;20041;-49
2021/09/03 01:57:18;;;;;;;16.42;10.30;;;;;;;;;;4877954;29;20092;-48
2021/09/03 01:59:45;;;;;;;16.50;10.50;;;;;;;;;;4877099;29;20606;-50
2021/09/03 02:02:12;;;;;;;13.25;9.80;;;;;;;;;;4868205;29;20049;-52
2021/09/03 02:04:39;;;;;;;13.07;9.35;;;;;;;;;;4876595;29;20037;-48
2021/09/03 02:07:07;;;;;;;14.05;10.80;;;;;;;;;;4878075;29;20053;-52
2021/09/03 02:09:33;;;;;;;13.45;10.30;;;;;;;;;;4877658;29;20052;-50
2021/09/03 02:12:00;;;;;;;13.52;9.98;;;;;;;;;;4878107;29;20055;-48
2021/09/03 02:14:27;;;;;;;11.95;9.15;;;;;;;;;;4876776;29;20414;-48
2021/09/03 02:16:53;;;;;;;12.93;9.20;;;;;;;;;;4877987;29;20045;-48
2021/09/03 02:19:20;;;;;;;13.25;9.82;;;;;;;;;;4877518;29;20060;-49
2021/09/03 02:21:47;;;;;;;17.48;11.52;;;;;;;;;;4876520;29;20041;-51
2021/09/03 02:24:13;;;;;;;15.27;10.75;;;;;;;;;;4878528;29;20037;-49
2021/09/03 02:26:40;;;;;;;14.35;9.52;;;;;;;;;;4881269;29;20049;-50
2021/09/03 02:29:07;;;;;;;15.23;10.18;;;;;;;;;;4881360;29;20395;-48
2021/09/03 02:31:33;;;;;;;13.38;9.50;;;;;;;;;;4875782;29;20132;-48
2021/09/03 02:34:00;;;;;;;12.88;9.02;;;;;;;;;;4862585;29;20416;-50
2021/09/03 02:36:27;;;;;;;13.45;9.95;;;;;;;;;;4873106;29;20132;-48
2021/09/03 02:38:54;;;;;;;15.32;10.10;;;;;;;;;;4881188;29;20051;-51
2021/09/03 02:41:20;;;;;;;15.32;10.25;;;;;;;;;;4879923;29;20057;-49
2021/09/03 02:43:47;;;;;;;13.93;10.27;;;;;;;;;;4879719;29;20041;-49
2021/09/03 02:46:14;;;;;;;14.50;9.63;;;;;;;;;;4880810;29;20049;-48
2021/09/03 02:48:40;;;;;;;13.05;9.35;;;;;;;;;;4879433;29;20507;-49
2021/09/03 02:51:07;;;;;;;14.52;10.18;;;;;;;;;;4879857;29;20041;-50
2021/09/03 02:53:34;;;;;;;13.88;10.02;;;;;;;;;;4874414;29;20051;-49
2021/09/03 02:56:01;;;;;;;14.20;10.18;;;;;;;;;;4869222;29;20399;-49
2021/09/03 02:58:28;;;;;;;15.00;10.13;;;;;;;;;;4880613;29;20051;-48
2021/09/03 03:00:55;;;;;;;14.40;9.93;;;;;;;;;;4880999;29;20043;-49
2021/09/03 03:03:22;;;;;;;14.82;10.75;;;;;;;;;;4877512;29;20048;-48
2021/09/03 03:05:49;;;;;;;13.95;10.27;;;;;;;;;;4868492;29;20403;-48
2021/09/03 03:08:16;;;;;;;13.52;10.45;;;;;;;;;;4880346;29;20055;-50
2021/09/03 03:10:42;;;;;;;13.30;9.55;;;;;;;;;;4880544;29;20076;-48
2021/09/03 03:13:24;;;;;;;14.73;10.40;;;;;;;;;;4869816;29;20054;-48
2021/09/03 03:15:51;;;;;;;15.85;10.88;;;;;;;;;;4866085;29;20429;-49
2021/09/03 03:18:18;;;;;;;14.20;11.02;;;;;;;;;;4879966;29;20089;-51
2021/09/03 03:20:46;;;;;;;14.73;10.25;;;;;;;;;;4878473;29;20514;-47
2021/09/03 03:23:13;;;;;;;15.02;10.55;;;;;;;;;;4880355;29;20065;-47
2021/09/03 03:25:40;;;;;;;15.63;11.13;;;;;;;;;;4880292;29;20049;-48
2021/09/03 03:28:07;;;;;;;14.40;10.93;;;;;;;;;;4878330;29;20411;-47
2021/09/03 03:30:33;;;;;;;16.42;11.85;;;;;;;;;;4879708;29;20041;-48
2021/09/03 03:33:00;;;;;;;18.90;12.57;;;;;;;;;;4880391;29;20649;-48
2021/09/03 03:35:27;;;;;;;17.98;12.55;;;;;;;;;;4864472;29;20056;-50
2021/09/03 03:37:54;;;;;;;15.63;11.52;;;;;;;;;;4871214;29;20437;-47
2021/09/03 03:40:21;;;;;;;16.10;11.70;;;;;;;;;;4879981;29;20044;-48
2021/09/03 03:42:48;;;;;;;14.60;10.98;;;;;;;;;;4879721;29;20048;-49
2021/09/03 03:45:14;;;;;;;19.08;12.05;;;;;;;;;;4879136;29;20041;-50
2021/09/03 03:47:41;;;;;;;16.33;10.73;;;;;;;;;;4878387;29;20136;-51
2021/09/03 03:50:08;;;;;;;16.27;11.95;;;;;;;;;;4879001;29;20049;-51
2021/09/03 03:52:35;;;;;;;16.13;11.90;;;;;;;;;;4878565;29;20135;-53
2021/09/03 03:55:02;;;;;;;15.88;11.15;;;;;;;;;;4874493;29;20052;-50
2021/09/03 03:57:29;;;;;;;17.73;11.38;;;;;;;;;;4879564;29;20052;-50
2021/09/03 03:59:56;;;;;;;15.00;11.05;;;;;;;;;;4879678;29;20052;-52
2021/09/03 04:02:23;;;;;;;16.05;11.20;;;;;;;;;;4874328;29;20060;-49
2021/09/03 04:04:50;;;;;;;15.07;10.88;;;;;;;;;;4868849;29;20046;-52
2021/09/03 04:07:16;;;;;;;15.25;10.40;;;;;;;;;;4865877;29;20055;-50
2021/09/03 04:09:43;;;;;;;15.05;11.07;;;;;;;;;;4879385;29;20097;-50
2021/09/03 04:12:10;;;;;;;17.02;12.25;;;;;;;;;;4879501;29;20142;-50
2021/09/03 04:14:37;;;;;;;15.82;11.30;;;;;;;;;;4867887;29;20137;-48
2021/09/03 04:17:04;;;;;;;17.02;11.80;;;;;;;;;;4861296;29;20076;-49
2021/09/03 04:19:30;;;;;;;16.98;11.52;;;;;;;;;;4879380;29;20045;-50
2021/09/03 04:21:57;;;;;;;16.08;11.02;;;;;;;;;;4879425;29;20130;-49
2021/09/03 04:24:24;;;;;;;17.33;11.38;;;;;;;;;;4877890;29;20041;-50
2021/09/03 04:26:51;;;;;;;16.73;11.05;;;;;;;;;;4879122;29;20484;-50
2021/09/03 04:29:18;;;;;;;18.75;12.65;;;;;;;;;;4879177;29;20429;-49
2021/09/03 04:31:44;;;;;;;18.33;11.85;;;;;;;;;;4878963;29;20060;-49
2021/09/03 04:34:11;;;;;;;15.73;11.88;;;;;;;;;;4870233;29;20208;-51
2021/09/03 04:36:38;;;;;;;15.65;11.20;;;;;;;;;;4878885;29;20507;-49
2021/09/03 04:39:04;;;;;;;16.75;12.30;;;;;;;;;;4879115;29;20044;-49
2021/09/03 04:41:31;;;;;;;17.25;12.10;;;;;;;;;;4878889;29;20598;-50
2021/09/03 04:43:58;;;;;;;18.55;11.85;;;;;;;;;;4874164;29;20060;-48
2021/09/03 04:46:24;;;;;;;14.52;11.00;;;;;;;;;;4871506;29;20052;-49
2021/09/03 04:48:51;;;;;;;15.95;11.23;;;;;;;;;;4878915;29;20808;-49
2021/09/03 04:51:18;;;;;;;15.68;11.45;;;;;;;;;;4879180;29;20041;-49
2021/09/03 04:53:44;;;;;;;16.45;11.73;;;;;;;;;;4871789;29;20045;-48
2021/09/03 04:56:11;;;;;;;18.73;11.23;;;;;;;;;;4860369;29;20045;-48
2021/09/03 04:58:38;;;;;;;16.13;11.77;;;;;;;;;;4878185;29;20515;-47
2021/09/03 05:01:05;;;;;;;15.25;11.93;;;;;;;;;;4872206;29;20041;-47
2021/09/03 05:03:32;;;;;;;16.05;11.77;;;;;;;;;;4877059;29;20048;-51
2021/09/03 05:05:59;;;;;;;18.38;13.23;;;;;;;;;;4868645;29;20041;-48
2021/09/03 05:08:25;;;;;;;16.77;12.45;;;;;;;;;;4878486;29;20488;-47
2021/09/03 05:10:52;;;;;;;20.15;13.10;;;;;;;;;;4878452;29;20158;-48
2021/09/03 05:13:19;;;;;;;16.90;12.57;;;;;;;;;;4869198;29;20052;-50
2021/09/03 05:15:46;;;;;;;22.33;13.57;;;;;;;;;;4863714;29;20041;-52
2021/09/03 05:18:12;;;;;;;17.55;11.93;;;;;;;;;;4878189;29;20060;-50
2021/09/03 05:20:39;;;;;;;20.77;12.32;;;;;;;;;;4878281;29;20037;-48
2021/09/03 05:23:07;;;;;;;18.40;13.10;;;;;;;;;;4873464;29;20052;-49
2021/09/03 05:25:34;;;;;;;17.20;12.75;;;;;;;;;;4862445;29;20396;-47
2021/09/03 05:28:00;;;;;;;17.30;12.93;;;;;;;;;;4877206;29;20056;-47
2021/09/03 05:30:27;;;;;;;22.90;13.80;;;;;;;;;;4874056;29;20393;-49
2021/09/03 05:32:54;;;;;;;18.02;13.15;;;;;;;;;;4891923;29;20052;-47
2021/09/03 05:35:24;;;;;;;18.85;14.07;;;;;;;;;;4871394;29;20049;-47
2021/09/03 05:37:51;;;;;;;20.13;13.73;;;;;;;;;;4878129;29;20140;-47
2021/09/03 05:40:18;;;;;;;20.77;13.93;;;;;;;;;;4877848;29;20033;-47
2021/09/03 05:42:45;;;;;;;19.83;14.35;;;;;;;;;;4878299;29;20452;-50
2021/09/03 05:45:11;;;;;;;19.40;14.02;;;;;;;;;;4876477;29;20037;-50
2021/09/03 05:47:44;;;;;;;18.27;13.73;;;;;;;;;;4878093;29;20051;-48
2021/09/03 05:50:11;;;;;;;;;;;;;;;;;;4877627;29;20513;-47
2021/09/03 05:52:38;;;;;;;19.85;12.82;;;;;;;;;;4875577;29;19963;-52
2021/09/03 05:55:05;;;;;;;18.88;13.77;;;;;;;;;;4877949;29;20458;-47
2021/09/03 05:57:32;;;;;;;19.55;13.45;;;;;;;;;;4877324;29;20057;-50
2021/09/03 05:59:59;;;;;;;19.58;13.88;;;;;;;;;;4877541;29;20045;-47
2021/09/03 06:02:26;;;;;;;19.35;14.23;;;;;;;;;;4876005;29;20487;-48
2021/09/03 06:04:53;;;;;;;18.90;13.30;;;;;;;;;;4876400;29;20041;-48
2021/09/03 06:07:20;;;;;;;19.40;13.55;;;;;;;;;;4878004;29;20495;-48
2021/09/03 06:09:46;;;;;;;19.30;13.35;;;;;;;;;;4877510;29;20133;-51
2021/09/03 06:12:13;;;;;;;19.73;13.23;;;;;;;;;;4871950;29;20056;-48
2021/09/03 06:14:40;;;;;;;17.50;12.88;;;;;;;;;;4877469;29;20104;-49
2021/09/03 06:17:07;;;;;;;19.95;13.45;;;;;;;;;;4877763;29;20045;-49
2021/09/03 06:19:33;;;;;;;17.85;12.55;;;;;;;;;;4877453;29;20074;-52
2021/09/03 06:22:01;;;;;;;18.08;12.75;;;;;;;;;;4864668;29;20042;-50
2021/09/03 06:24:28;;;;;;;19.40;13.77;;;;;;;;;;4865838;29;20423;-50
2021/09/03 06:26:59;;;;;;;20.48;13.43;;;;;;;;;;4876552;29;20041;-50
2021/09/03 06:29:45;;;;;;;17.48;13.50;;;;;;;;;;4871670;29;20041;-53
2021/09/03 06:32:15;;;;;;;18.13;13.10;;;;;;;;;;4877572;29;20455;-50
2021/09/03 06:34:42;;;;;;;18.88;13.48;;;;;;;;;;4868926;29;20511;-48
2021/09/03 06:37:09;;;;;;;18.65;13.30;;;;;;;;;;4867397;29;20061;-49
2021/09/03 06:39:36;;;;;;;18.73;13.68;;;;;;;;;;4876090;29;20515;-53
2021/09/03 06:42:03;;;;;;;17.02;12.57;;;;;;;;;;4876788;29;20049;-51
2021/09/03 06:44:32;;;;;;;22.33;14.30;;;;;;;;;;4877666;29;20452;-50
2021/09/03 06:46:58;;;;;;;17.95;13.52;;;;;;;;;;4877184;29;20058;-52
2021/09/03 06:49:25;;;;;;;21.67;13.10;;;;;;;;;;4877450;29;20041;-49
2021/09/03 06:51:52;;;;;;;19.48;12.30;;;;;;;;;;4863268;29;20061;-50
2021/09/03 06:54:19;;;;;;;19.00;12.95;;;;;;;;;;4858853;29;20064;-50
2021/09/03 06:56:46;;;;;;;18.75;13.40;;;;;;;;;;4871589;29;20052;-51
2021/09/03 06:59:12;;;;;;;19.08;12.77;;;;;;;;;;4875880;29;20053;-49
2021/09/03 07:01:39;;;;;;;16.50;12.30;;;;;;;;;;4874417;29;20045;-50
2021/09/03 07:04:06;;;;;;;17.75;11.98;;;;;;;;;;4876324;29;20045;-52
2021/09/03 07:06:33;;;;;;;19.00;12.65;;;;;;;;;;4877713;29;20518;-51
2021/09/03 07:09:04;;;;;;;20.10;14.60;;;;;;;;;;4877634;29;20056;-52
2021/09/03 07:11:31;;;;;;;17.73;12.70;;;;;;;;;;4880023;29;20045;-53
2021/09/03 07:13:58;;;;;;;17.35;11.82;;;;;;;;;;4883119;29;20040;-51
2021/09/03 07:16:25;;;;;;;17.48;12.35;;;;;;;;;;4879797;29;20051;-53
2021/09/03 07:18:52;;;;;;;16.88;12.18;;;;;;;;;;4888216;29;20108;-52
2021/09/03 07:21:19;;;;;;;15.65;12.00;;;;;;;;;;4876906;29;20053;-53
2021/09/03 07:23:50;;;;;;;17.17;11.52;;;;;;;;;;4879894;29;20050;-49
2021/09/03 07:26:17;;;;;;;16.63;11.45;;;;;;;;;;4869210;29;20523;-50
2021/09/03 07:28:43;;;;;;;15.57;11.07;;;;;;;;;;4862049;29;20061;-49
2021/09/03 07:31:10;;;;;;;15.25;10.35;;;;;;;;;;4869984;29;20100;-50
2021/09/03 07:33:37;;;;;;;15.60;11.18;;;;;;;;;;4886614;29;20132;-51
2021/09/03 07:36:04;;;;;;;15.25;10.30;;;;;;;;;;4881019;29;20085;-50
2021/09/03 07:38:33;;;;;;;14.70;10.93;;;;;;;;;;4880123;29;20045;-54
2021/09/03 07:41:00;;;;;;;15.85;11.25;;;;;;;;;;4879870;29;20040;-50
2021/09/03 07:43:27;;;;;;;15.02;10.82;;;;;;;;;;4877071;29;20127;-54
2021/09/03 07:45:58;;;;;;;14.57;9.80;;;;;;;;;;4869682;29;20056;-51
2021/09/03 07:48:25;;;;;;;14.27;10.40;;;;;;;;;;4879640;29;20048;-49
2021/09/03 07:50:52;;;;;;;15.45;9.70;;;;;;;;;;4879533;29;20740;-50
2021/09/03 07:53:19;;;;;;;14.50;9.98;;;;;;;;;;4878597;29;20052;-52
2021/09/03 07:55:46;;;;;;;12.65;8.95;;;;;;;;;;4879837;29;20157;-49
2021/09/03 07:58:13;;;;;;;13.02;9.23;;;;;;;;;;4879120;29;20388;-50
2021/09/03 08:00:40;;;;;;;13.45;8.90;;;;;;;;;;4877609;29;20071;-50
2021/09/03 08:03:07;;;;;;;13.05;9.10;;;;;;;;;;4875904;29;20192;-51
2021/09/03 08:05:34;;;;;;;13.82;9.27;;;;;;;;;;4877753;29;20077;-51
2021/09/03 08:08:02;;;;;;;12.93;8.73;;;;;;;;;;4878836;29;20067;-49
2021/09/03 08:10:32;;;;;;;13.32;10.05;;;;;;;;;;4878950;29;20138;-50
2021/09/03 08:13:03;;;;;;;11.65;8.82;;;;;;;;;;4867041;29;20077;-49
2021/09/03 08:15:30;;;;;;;11.40;8.90;;;;;;;;;;4878651;29;20041;-51
2021/09/03 08:17:57;;;;;;;13.57;8.80;;;;;;;;;;4879026;29;20037;-49
2021/09/03 08:20:25;;;;;;;12.25;8.45;;;;;;;;;;4878849;29;20037;-47
2021/09/03 08:22:52;;;;;;;13.20;8.10;;;;;;;;;;4869300;29;20048;-52
2021/09/03 08:25:19;;;;;;;14.60;9.07;;;;;;;;;;4878913;29;20043;-47
2021/09/03 08:27:46;;;;;;;11.95;8.52;;;;;;;;;;4878656;29;20124;-49
2021/09/03 08:30:13;;;;;;;10.70;8.25;;;;;;;;;;4876674;29;20057;-49
2021/09/03 08:32:40;;;;;;;12.48;8.02;;;;;;;;;;4878288;29;20082;-53
2021/09/03 08:35:07;;;;;;;11.50;8.13;;;;;;;;;;4867009;29;20055;-49
2021/09/03 08:37:34;;;;;;;12.20;8.00;;;;;;;;;;4860432;29;20423;-46
2021/09/03 08:40:01;;;;;;;12.70;8.90;;;;;;;;;;4875134;29;20057;-50
2021/09/03 08:42:30;;;;;;;13.32;9.30;;;;;;;;;;4867068;29;20050;-48
2021/09/03 08:44:57;;;;;;;12.80;8.80;;;;;;;;;;4874681;29;20052;-50
2021/09/03 08:47:24;;;;;;;13.15;8.85;;;;;;;;;;4878587;29;20041;-49
2021/09/03 08:49:50;;;;;;;12.90;9.40;;;;;;;;;;4873572;29;20049;-49
2021/09/03 08:52:18;;;;;;;12.77;9.75;;;;;;;;;;4867016;29;20056;-50
2021/09/03 08:54:45;;;;;;;17.08;9.32;;;;;;;;;;4878227;29;20080;-51
2021/09/03 08:57:16;;;;;;;14.82;9.13;;;;;;;;;;4877687;29;20053;-49
2021/09/03 08:59:43;;;;;;;15.20;8.85;;;;;;;;;;4865253;29;20052;-48
2021/09/03 09:02:20;;;;;;;13.15;8.65;;;;;;;;;;4863276;29;20410;-52
2021/09/03 09:04:51;;;;;;;10.93;8.90;;;;;;;;;;4869447;29;20044;-51
2021/09/03 09:07:17;;;;;;;14.82;8.35;;;;;;;;;;4859900;29;20047;-50
2021/09/03 09:09:47;;;;;;;12.82;8.88;;;;;;;;;;4876055;29;20136;-50
2021/09/03 09:12:15;;;;;;;11.40;9.38;;;;;;;;;;4874207;29;20050;-48
2021/09/03 09:15:01;;;;;;;13.80;10.02;;;;;;;;;;4878900;29;20124;-48
2021/09/03 09:17:28;;;;;;;12.68;8.98;;;;;;;;;;4875752;29;20053;-48
2021/09/03 09:19:55;;;;;;;12.25;9.10;;;;;;;;;;4878584;29;20045;-51
2021/09/03 09:22:22;;;;;;;13.70;8.40;;;;;;;;;;4875128;29;20072;-48
2021/09/03 09:24:49;;;;;;;10.57;8.82;;;;;;;;;;4877146;29;20481;-49
2021/09/03 09:27:23;;;;;;;10.98;8.32;;;;;;;;;;4878244;29;20041;-59
2021/09/03 09:29:50;;;;;;;10.85;7.93;;;;;;;;;;4876547;29;20052;-48
2021/09/03 09:32:17;;;;;;;12.98;7.97;;;;;;;;;;4866640;29;20060;-48
2021/09/03 09:34:44;;;;;;;10.88;7.68;;;;;;;;;;4874745;29;20045;-48
2021/09/03 09:37:14;;;;;;;12.85;8.50;;;;;;;;;;4874864;29;20060;-49
2021/09/03 09:39:44;;;;;;;12.45;9.55;;;;;;;;;;4878123;29;20049;-51
2021/09/03 09:42:21;;;;;;;13.27;9.18;;;;;;;;;;4878229;29;20139;-48
2021/09/03 09:45:00;;;;;;;12.00;8.75;;;;;;;;;;4873325;29;20513;-48
2021/09/03 09:47:28;;;;;;;12.82;8.93;;;;;;;;;;4877551;29;20049;-48
2021/09/03 09:49:54;;;;;;;11.75;8.00;;;;;;;;;;4878132;29;20503;-48
2021/09/03 09:52:34;;;;;;;12.43;8.38;;;;;;;;;;4878120;29;20085;-49
2021/09/03 09:55:02;;;;;;;10.13;7.88;;;;;;;;;;4867666;29;20037;-48
2021/09/03 09:57:33;;;;;;;11.90;8.20;;;;;;;;;;4878247;29;20500;-49
2021/09/03 10:00:01;;;;;;;10.15;8.02;;;;;;;;;;4877808;29;20087;-51
2021/09/03 10:02:37;;;;;;;10.75;8.00;;;;;;;;;;4873013;29;20042;-48
2021/09/03 10:05:05;;;;;;;25.00;9.32;;;;;;;;;;4867023;29;20049;-49
2021/09/03 10:07:32;;;;;;;10.05;7.40;;;;;;;;;;4877968;29;20052;-49
2021/09/03 10:09:59;;;;;;;10.50;7.18;;;;;;;;;;4877970;29;20049;-50
2021/09/03 10:12:26;;;;;;;13.90;7.78;;;;;;;;;;4877605;29;20127;-52
2021/09/03 10:14:53;;;;;;;11.60;7.85;;;;;;;;;;4869496;29;20480;-48
2021/09/03 10:17:20;;;;;;;11.02;7.43;;;;;;;;;;4877828;29;20045;-50
2021/09/03 10:19:50;;;;;;;9.88;6.93;;;;;;;;;;4877712;29;20049;-49
2021/09/03 10:22:19;;;;;;;11.23;7.72;;;;;;;;;;4877570;29;20051;-49
2021/09/03 10:24:47;;;;;;;10.00;7.43;;;;;;;;;;4862757;29;20046;-49
2021/09/03 10:27:14;;;;;;;11.23;8.18;;;;;;;;;;4876797;29;20041;-51
2021/09/03 10:29:42;;;;;;;8.98;6.93;;;;;;;;;;4877850;29;20416;-49
2021/09/03 10:32:11;;;;;;;11.23;8.40;;;;;;;;;;4876324;29;20564;-51
2021/09/03 10:37:16;;;;;;;10.32;6.90;;;;;;;;;;4874548;29;20045;-50
2021/09/03 10:39:44;;;;;;;11.80;7.72;;;;;;;;;;4877559;29;20512;-51
2021/09/03 10:42:11;;;;;;;9.95;6.85;;;;;;;;;;4872291;29;20045;-51
2021/09/03 10:44:56;;;;;;;8.98;7.55;;;;;;;;;;4860212;29;20128;-49
2021/09/03 10:47:30;;;;;;;13.68;7.68;;;;;;;;;;4877990;29;20045;-52
2021/09/03 10:50:00;;;;;;;10.23;7.10;;;;;;;;;;4881299;29;20079;-49
2021/09/03 10:52:29;;;;;;;12.07;6.70;;;;;;;;;;4879990;29;20547;-50
2021/09/03 10:54:56;;;;;;;9.13;6.35;;;;;;;;;;4880722;29;20396;-49
2021/09/03 10:57:22;;;;;;;9.40;7.05;;;;;;;;;;4880751;29;20057;-49
2021/09/03 11:00:08;;;;;;;9.93;6.57;;;;;;;;;;4875645;29;20195;-49
2021/09/03 11:02:34;;;;;;;10.70;7.68;;;;;;;;;;4862387;29;20052;-49
2021/09/03 11:05:12;;;;;;;10.80;7.00;;;;;;;;;;4878514;29;20045;-48
2021/09/03 11:07:42;;;;;;;9.05;6.60;;;;;;;;;;4895234;29;20109;-50
2021/09/03 11:10:15;;;;;;;10.18;7.53;;;;;;;;;;4880858;29;20148;-51
2021/09/03 11:12:52;;;;;;;10.07;7.15;;;;;;;;;;4871889;29;20197;-52
2021/09/03 11:15:20;;;;;;;9.48;7.47;;;;;;;;;;4862292;29;20045;-52
2021/09/03 11:17:47;;;;;;;9.90;6.85;;;;;;;;;;4879223;29;20052;-52
2021/09/03 11:20:16;;;;;;;9.45;6.53;;;;;;;;;;4880235;29;20072;-52
2021/09/03 11:22:43;;;;;;;10.38;7.03;;;;;;;;;;4879443;29;20041;-53
2021/09/03 11:25:10;;;;;;;10.68;6.72;;;;;;;;;;4880346;29;20488;-52
2021/09/03 11:27:38;;;;;;;10.95;7.40;;;;;;;;;;4880187;29;20041;-53
2021/09/03 11:30:08;;;;;;;12.57;6.80;;;;;;;;;;4878614;29;20518;-53
2021/09/03 11:32:38;;;;;;;7.80;5.97;;;;;;;;;;4878190;29;20057;-53
2021/09/03 11:35:09;;;;;;;8.85;6.88;;;;;;;;;;4880269;29;20403;-53
2021/09/03 11:37:44;;;;;;;9.50;6.88;;;;;;;;;;4880348;29;20061;-53
2021/09/03 11:40:15;;;;;;;9.35;7.10;;;;;;;;;;4878845;29;20045;-50
2021/09/03 11:42:46;;;;;;;9.05;6.13;;;;;;;;;;4879191;29;20045;-52
2021/09/03 11:45:17;;;;;;;8.65;6.38;;;;;;;;;;4894374;29;20053;-54
2021/09/03 11:47:48;;;;;;;8.73;6.32;;;;;;;;;;4879680;29;20052;-51
2021/09/03 11:50:17;;;;;;;8.90;6.85;;;;;;;;;;4880346;29;20407;-50
2021/09/03 11:52:44;;;;;;;12.52;6.72;;;;;;;;;;4878864;29;20053;-49
2021/09/03 11:55:17;;;;;;;11.10;7.22;;;;;;;;;;4879707;29;20662;-49
2021/09/03 11:57:53;;;;;;;8.98;6.68;;;;;;;;;;4878049;29;20143;-50
2021/09/03 12:00:20;;;;;;;8.48;6.10;;;;;;;;;;4871426;29;20451;-54
2021/09/03 12:02:48;;;;;;;7.22;5.70;;;;;;;;;;4861457;29;20045;-51
2021/09/03 12:05:15;;;;;;;7.82;5.70;;;;;;;;;;4869430;29;20073;-52
2021/09/03 12:08:01;;;;;;;9.52;6.72;;;;;;;;;;4874635;29;20412;-53
2021/09/03 12:10:35;;;;;;;7.72;5.97;;;;;;;;;;4879462;29;20045;-53
2021/09/03 12:13:22;;;;;;;8.10;6.00;;;;;;;;;;4869356;29;20052;-50
2021/09/03 12:15:56;;;;;;;8.32;5.78;;;;;;;;;;4861239;29;20141;-49
2021/09/03 12:18:30;;;;;;;6.72;5.35;;;;;;;;;;4874577;29;20045;-53
2021/09/03 12:20:58;;;;;;;8.75;6.18;;;;;;;;;;4878648;29;20048;-53
2021/09/03 12:23:30;;;;;;;8.93;5.93;;;;;;;;;;4879380;29;20045;-51
2021/09/03 12:26:00;;;;;;;9.77;5.63;;;;;;;;;;4879566;29;20427;-54
2021/09/03 12:28:27;;;;;;;6.90;5.60;;;;;;;;;;4879221;29;20136;-53
2021/09/03 12:30:54;;;;;;;7.32;5.43;;;;;;;;;;4866534;29;20136;-54
2021/09/03 12:33:20;;;;;;;6.80;5.47;;;;;;;;;;4869204;29;20624;-54
2021/09/03 12:35:48;;;;;;;10.60;5.75;;;;;;;;;;4863199;29;20053;-54
2021/09/03 12:38:15;;;;;;;9.40;6.03;;;;;;;;;;4869484;29;20038;-53
2021/09/03 12:40:42;;;;;;;8.68;5.35;;;;;;;;;;4879159;29;20051;-51
2021/09/03 12:43:13;;;;;;;7.15;5.70;;;;;;;;;;4878669;29;20542;-54
2021/09/03 12:45:46;;;;;;;7.03;6.15;;;;;;;;;;4874645;29;20182;-53
2021/09/03 12:48:14;;;;;;;6.60;5.32;;;;;;;;;;4871123;29;20048;-50
2021/09/03 12:50:44;;;;;;;8.50;6.25;;;;;;;;;;4879209;29;20055;-53
2021/09/03 12:53:19;;;;;;;7.47;5.78;;;;;;;;;;4878608;29;20140;-54
2021/09/03 12:55:46;;;;;;;9.73;6.22;;;;;;;;;;4869341;29;20053;-53
2021/09/03 12:58:13;;;;;;;6.90;5.63;;;;;;;;;;4870967;29;20049;-50
2021/09/03 13:00:40;;;;;;;6.25;5.13;;;;;;;;;;4878912;29;20045;-54
2021/09/03 13:03:07;;;;;;;7.78;6.00;;;;;;;;;;4877282;29;20124;-52
2021/09/03 13:05:34;;;;;;;9.45;5.30;;;;;;;;;;4863794;29;20097;-50
2021/09/03 13:08:02;;;;;;;14.70;6.22;;;;;;;;;;4868612;29;20045;-52
2021/09/03 13:10:29;;;;;;;7.85;6.10;;;;;;;;;;4878848;29;20048;-54
2021/09/03 13:12:55;;;;;;;7.07;5.82;;;;;;;;;;4874550;29;20046;-54
2021/09/03 13:15:22;;;;;;;7.07;4.97;;;;;;;;;;4859944;29;20084;-52
2021/09/03 13:17:49;;;;;;;7.32;4.68;;;;;;;;;;4866955;29;20068;-54
2021/09/03 13:20:16;;;;;;;6.60;4.53;;;;;;;;;;4877351;29;20067;-54
2021/09/03 13:22:43;;;;;;;7.78;5.25;;;;;;;;;;4878614;29;20073;-54
2021/09/03 13:25:10;;;;;;;7.10;5.03;;;;;;;;;;4878429;29;20566;-53
2021/09/03 13:27:36;;;;;;;10.68;5.15;;;;;;;;;;4878152;29;20041;-52
2021/09/03 13:30:03;;;;;;;7.45;5.15;;;;;;;;;;4877269;29;20563;-53
2021/09/03 13:32:30;;;;;;;6.68;5.18;;;;;;;;;;4878292;29;20478;-51
2021/09/03 13:34:57;;;;;;;10.85;5.20;;;;;;;;;;4875836;29;20128;-54
2021/09/03 13:37:23;;;;;;;9.50;5.72;;;;;;;;;;4883318;29;20063;-52
2021/09/03 13:39:50;;;;;;;12.75;5.63;;;;;;;;;;4878317;29;20052;-53
2021/09/03 13:42:17;;;;;;;10.27;4.95;;;;;;;;;;4876842;29;20041;-50
2021/09/03 13:44:44;;;;;;;7.32;5.47;;;;;;;;;;4878144;29;20503;-51
2021/09/03 13:47:11;;;;;;;8.57;4.95;;;;;;;;;;4877937;29;20140;-50
2021/09/03 13:49:38;;;;;;;8.65;4.78;;;;;;;;;;4876867;29;20529;-50
2021/09/03 13:52:05;;;;;;;7.50;5.15;;;;;;;;;;4877036;29;20056;-49
2021/09/03 13:54:32;;;;;;;5.95;4.80;;;;;;;;;;4877304;29;20093;-49
2021/09/03 13:56:58;;;;;;;6.97;4.60;;;;;;;;;;4878073;29;20451;-50
2021/09/03 13:59:26;;;;;;;53.95;6.93;;;;;;;;;;4860534;29;20126;-49
2021/09/03 14:01:53;;;;;;;11.40;5.03;;;;;;;;;;4873435;29;20041;-49
2021/09/03 14:04:20;;;;;;;7.72;5.75;;;;;;;;;;4871927;29;20041;-50
2021/09/03 14:06:47;;;;;;;8.02;5.43;;;;;;;;;;4859328;29;20052;-51
2021/09/03 14:09:14;;;;;;;8.98;5.63;;;;;;;;;;4875705;29;20055;-49
2021/09/03 14:11:44;;;;;;;8.30;5.20;;;;;;;;;;4877958;29;20145;-50
2021/09/03 14:14:11;;;;;;;7.40;5.70;;;;;;;;;;4872474;29;20064;-51
2021/09/03 14:16:39;;;;;;;7.65;5.20;;;;;;;;;;4867986;29;20060;-49
2021/09/03 14:19:19;;;;;;;8.63;5.40;;;;;;;;;;4889802;29;20463;-51
2021/09/03 14:21:46;;;;;;;6.93;5.45;;;;;;;;;;4886595;29;20033;-50
2021/09/03 14:24:13;;;;;;;6.32;4.65;;;;;;;;;;4881232;29;20045;-49
2021/09/03 14:26:43;;;;;;;20.52;5.50;;;;;;;;;;4881414;29;20558;-49
2021/09/03 14:29:10;;;;;;;11.38;5.45;;;;;;;;;;4881275;29;20136;-53
2021/09/03 14:31:37;;;;;;;7.70;5.30;;;;;;;;;;4880235;29;20041;-50
2021/09/03 14:34:04;;;;;;;6.93;4.90;;;;;;;;;;4889927;29;20056;-53
2021/09/03 14:36:32;;;;;;;9.73;4.97;;;;;;;;;;4862803;29;20507;-48